Time;durP1;ratioP1;P1;durP2;ratioP2;P2;SDS_P1;SDS_P2;PMS_P1;PMS_P2;Temp;Humidity;BMP_temperature;BMP_pressure;BME280_temperature;BME280_humidity;BME280_pressure;Samples;Min_cycle;Max_cycle;Signal;HPM_P1;HPM_P2
2020/12/28 07:03:16;;;;;;;1.97;0.33;;;3.30;99.90;;;;;;6164332;23;20056;-94
2020/12/28 07:05:43;;;;;;;1.27;0.40;;;3.30;99.90;;;;;;6173700;23;20018;-87
2020/12/28 07:08:10;;;;;;;2.63;0.40;;;3.30;99.90;;;;;;6176624;23;19997;-87
2020/12/28 07:10:36;;;;;;;2.00;0.50;;;3.30;99.90;;;;;;6171874;23;20002;-87
2020/12/28 07:13:06;;;;;;;1.60;0.40;;;3.30;99.90;;;;;;6149368;23;20009;-87
2020/12/28 07:15:32;;;;;;;2.97;1.50;;;3.30;99.90;;;;;;6151141;23;20001;-87
2020/12/28 07:18:07;;;;;;;1.70;0.50;;;3.30;99.90;;;;;;6124911;23;20018;-88
2020/12/28 07:20:33;;;;;;;1.63;0.60;;;3.30;99.90;;;;;;6174163;23;20006;-88
2020/12/28 07:23:02;;;;;;;2.40;0.70;;;3.20;99.90;;;;;;6151190;23;20032;-87
2020/12/28 07:25:27;;;;;;;2.80;0.67;;;3.20;99.90;;;;;;6177047;23;20006;-87
2020/12/28 07:27:54;;;;;;;3.07;0.67;;;3.20;99.90;;;;;;6153189;23;20446;-88
2020/12/28 07:30:20;;;;;;;1.43;0.50;;;3.20;99.90;;;;;;6152778;23;20001;-87
2020/12/28 07:32:45;;;;;;;3.30;0.70;;;3.20;99.90;;;;;;6153214;23;20012;-88
2020/12/28 07:35:11;;;;;;;2.60;0.50;;;3.20;99.90;;;;;;6177681;23;20009;-87
2020/12/28 07:37:42;;;;;;;4.77;0.73;;;3.20;99.90;;;;;;6152536;23;20005;-88
2020/12/28 07:40:09;;;;;;;2.23;0.70;;;3.20;99.90;;;;;;6152697;23;20032;-88
2020/12/28 07:42:35;;;;;;;2.30;0.53;;;3.20;99.90;;;;;;6127802;23;20006;-88
2020/12/28 07:45:06;;;;;;;2.43;0.47;;;3.20;99.90;;;;;;6177836;23;20006;-87
2020/12/28 07:47:48;;;;;;;1.65;0.60;;;3.20;99.90;;;;;;6153236;23;20017;-88
2020/12/28 07:50:16;;;;;;;2.20;0.80;;;3.20;99.90;;;;;;6152846;23;20009;-87
2020/12/28 07:52:52;;;;;;;4.17;0.70;;;3.20;99.90;;;;;;6177586;23;20021;-88
2020/12/28 07:55:20;;;;;;;2.13;0.63;;;3.20;99.90;;;;;;6177888;23;20495;-87
2020/12/28 07:57:58;;;;;;;3.33;0.77;;;3.20;99.90;;;;;;6154938;23;20033;-88
2020/12/28 08:00:30;;;;;;;3.10;0.67;;;3.20;99.90;;;;;;6153008;23;19997;-88
2020/12/28 08:02:55;;;;;;;;;;;3.20;99.90;;;;;;6153393;23;20085;-87
2020/12/28 08:05:22;;;;;;;2.83;0.80;;;3.20;99.90;;;;;;6152724;23;19936;-88
2020/12/28 08:07:49;;;;;;;3.17;0.60;;;3.20;99.90;;;;;;6154118;23;20009;-88
2020/12/28 08:10:15;;;;;;;4.53;0.67;;;3.10;99.90;;;;;;6155863;23;20001;-88
2020/12/28 08:12:49;;;;;;;1.17;0.40;;;3.10;99.90;;;;;;6152741;23;20008;-88
2020/12/28 08:15:14;;;;;;;2.40;0.53;;;3.20;99.90;;;;;;6153184;23;20125;-89
2020/12/28 08:17:40;;;;;;;2.07;0.50;;;3.20;99.90;;;;;;6152842;23;20012;-87
2020/12/28 08:20:08;;;;;;;1.43;0.47;;;3.20;99.90;;;;;;6155759;23;20364;-91
2020/12/28 08:22:33;;;;;;;1.77;0.37;;;3.20;99.90;;;;;;6154483;23;20016;-90
2020/12/28 08:25:05;;;;;;;1.03;0.30;;;3.20;99.90;;;;;;6154686;23;20025;-90
2020/12/28 08:27:32;;;;;;;0.73;0.30;;;3.30;99.90;;;;;;6153807;23;20099;-89
2020/12/28 08:30:05;;;;;;;2.63;0.30;;;3.30;99.90;;;;;;6153860;23;20010;-90
2020/12/28 08:32:31;;;;;;;2.07;0.23;;;3.40;99.90;;;;;;6155789;23;20006;-90
2020/12/28 08:34:58;;;;;;;1.67;0.30;;;3.30;99.90;;;;;;6154067;23;20010;-90
2020/12/28 08:37:24;;;;;;;3.60;0.30;;;3.40;99.90;;;;;;6154386;23;20009;-91
2020/12/28 08:39:53;;;;;;;1.10;0.30;;;3.40;99.90;;;;;;6154469;23;20036;-91
2020/12/28 08:42:31;;;;;;;0.80;0.30;;;3.40;99.90;;;;;;6156755;23;20026;-90
2020/12/28 08:45:03;;;;;;;4.37;0.30;;;3.50;99.90;;;;;;6156850;23;20075;-90
2020/12/28 08:47:30;;;;;;;1.30;0.20;;;3.50;99.90;;;;;;6153699;23;20001;-91
2020/12/28 08:49:56;;;;;;;0.80;0.30;;;3.50;99.90;;;;;;6152948;23;20006;-90
2020/12/28 08:52:23;;;;;;;1.67;0.30;;;3.50;99.90;;;;;;6153153;23;20499;-90
2020/12/28 08:54:57;;;;;;;1.07;0.27;;;3.60;99.90;;;;;;6153727;23;20080;-90
2020/12/28 08:57:28;;;;;;;1.50;0.30;;;3.60;99.90;;;;;;6153257;23;20514;-89
2020/12/28 08:59:56;;;;;;;0.60;0.20;;;3.50;99.90;;;;;;6152977;23;20104;-90
2020/12/28 09:02:24;;;;;;;0.93;0.20;;;3.60;99.90;;;;;;6152662;23;20441;-90
2020/12/28 09:04:50;;;;;;;1.63;0.40;;;3.60;99.90;;;;;;6155251;23;20005;-90
2020/12/28 09:07:17;;;;;;;1.37;0.50;;;3.60;99.90;;;;;;6152553;23;20068;-90
2020/12/28 09:09:45;;;;;;;2.03;0.70;;;3.70;99.90;;;;;;6152175;23;20467;-91
2020/12/28 09:12:12;;;;;;;2.03;1.20;;;3.60;99.90;;;;;;6152720;23;20423;-91
2020/12/28 09:14:40;;;;;;;2.93;0.97;;;3.70;99.90;;;;;;6154853;23;20080;-93
2020/12/28 09:17:06;;;;;;;3.13;0.70;;;3.60;99.90;;;;;;6152658;23;20409;-91
2020/12/28 09:19:33;;;;;;;2.00;0.70;;;3.60;99.90;;;;;;6149025;23;20445;-89
2020/12/28 09:22:00;;;;;;;3.67;0.80;;;3.70;99.90;;;;;;6151252;23;20507;-89
2020/12/28 09:24:26;;;;;;;2.33;0.70;;;3.70;99.90;;;;;;6152896;23;20679;-90
2020/12/28 09:26:55;;;;;;;5.27;1.13;;;3.70;99.90;;;;;;6152561;23;20057;-91
2020/12/28 09:29:21;;;;;;;3.63;0.80;;;3.70;99.90;;;;;;6151450;23;20010;-91
2020/12/28 09:31:47;;;;;;;2.67;0.60;;;3.70;99.90;;;;;;6151358;23;20175;-91
2020/12/28 09:34:13;;;;;;;2.40;1.00;;;3.80;99.90;;;;;;6152531;23;20005;-89
2020/12/28 09:36:39;;;;;;;3.27;0.70;;;3.70;99.90;;;;;;6152852;23;20088;-91
2020/12/28 09:39:05;;;;;;;1.93;0.77;;;3.70;99.90;;;;;;6152260;23;20016;-90
2020/12/28 09:41:33;;;;;;;4.53;0.80;;;3.70;99.90;;;;;;6153553;23;20310;-91
2020/12/28 09:43:59;;;;;;;2.30;0.70;;;3.80;99.90;;;;;;6156705;23;20040;-90
2020/12/28 09:46:24;;;;;;;4.10;0.90;;;3.80;99.90;;;;;;6153732;23;20013;-91
2020/12/28 09:48:50;;;;;;;4.27;1.03;;;3.90;99.90;;;;;;6153041;23;20437;-91
2020/12/28 09:51:16;;;;;;;3.40;1.40;;;3.90;99.90;;;;;;6152851;23;20008;-90
2020/12/28 09:53:42;;;;;;;2.27;1.00;;;3.90;99.90;;;;;;6149932;23;20010;-91
2020/12/28 09:56:10;;;;;;;3.23;1.03;;;3.90;99.90;;;;;;6150182;23;20012;-91
2020/12/28 09:58:36;;;;;;;2.87;1.43;;;3.90;99.90;;;;;;6154287;23;20021;-91
2020/12/28 10:01:05;;;;;;;2.37;0.90;;;3.90;99.90;;;;;;6156288;23;20061;-91
2020/12/28 10:03:31;;;;;;;2.53;1.00;;;3.90;99.90;;;;;;6155024;23;20012;-92
2020/12/28 10:05:56;;;;;;;4.40;1.20;;;4.00;99.90;;;;;;6158877;23;20013;-91
2020/12/28 10:08:22;;;;;;;3.07;1.00;;;4.00;99.90;;;;;;6158211;23;20012;-90
2020/12/28 10:10:48;;;;;;;2.60;0.90;;;4.00;99.90;;;;;;6185320;23;20023;-91
2020/12/28 10:13:15;;;;;;;2.50;0.90;;;4.00;99.90;;;;;;6158307;23;20063;-90
2020/12/28 10:15:41;;;;;;;4.30;1.27;;;3.90;99.90;;;;;;6158902;23;20036;-92
2020/12/28 10:18:22;;;;;;;3.07;1.30;;;4.00;99.90;;;;;;6159785;23;20435;-92
2020/12/28 10:20:51;;;;;;;3.70;1.60;;;4.00;99.90;;;;;;6184195;23;20036;-91
2020/12/28 10:23:16;;;;;;;4.13;1.60;;;4.00;99.90;;;;;;6159225;23;20305;-92
2020/12/28 10:25:44;;;;;;;3.97;1.73;;;4.00;99.90;;;;;;6182924;23;20020;-92
2020/12/28 10:28:13;;;;;;;3.47;1.67;;;4.00;99.90;;;;;;6160255;23;20340;-92
2020/12/28 10:30:41;;;;;;;5.63;2.40;;;4.00;99.90;;;;;;6159083;23;20001;-91
2020/12/28 10:33:07;;;;;;;4.07;1.90;;;4.00;99.90;;;;;;6159624;23;20005;-91
2020/12/28 10:35:34;;;;;;;4.03;2.20;;;4.00;99.90;;;;;;6160194;23;20052;-92
2020/12/28 10:37:59;;;;;;;4.37;2.23;;;4.00;99.90;;;;;;6160495;23;20025;-92
2020/12/28 10:40:25;;;;;;;6.67;2.47;;;3.90;99.90;;;;;;6162135;23;20017;-91
2020/12/28 10:42:50;;;;;;;4.40;2.33;;;4.00;99.90;;;;;;6160443;23;20021;-91
2020/12/28 10:45:16;;;;;;;5.87;2.33;;;4.00;99.90;;;;;;6160978;23;20005;-92
2020/12/28 10:47:42;;;;;;;4.27;2.30;;;4.10;99.90;;;;;;6160682;23;20059;-92
2020/12/28 10:50:09;;;;;;;7.20;2.67;;;4.20;99.90;;;;;;6162626;23;20004;-90
2020/12/28 10:52:35;;;;;;;5.67;2.77;;;4.10;99.90;;;;;;6165188;23;20420;-91
2020/12/28 10:55:00;;;;;;;4.93;2.33;;;4.10;99.90;;;;;;6160231;23;20001;-91
2020/12/28 10:57:29;;;;;;;4.27;2.47;;;4.20;99.90;;;;;;6159070;23;20009;-91
2020/12/28 10:59:54;;;;;;;5.63;2.70;;;4.10;99.90;;;;;;6158063;23;20012;-92
2020/12/28 11:02:20;;;;;;;6.93;2.80;;;4.10;99.90;;;;;;6158451;23;20009;-92
2020/12/28 11:04:47;;;;;;;5.97;2.90;;;4.10;99.90;;;;;;6164140;23;20005;-91
2020/12/28 11:07:12;;;;;;;6.90;2.80;;;4.10;99.90;;;;;;6182586;23;20077;-90
2020/12/28 11:09:39;;;;;;;4.83;2.80;;;4.10;99.90;;;;;;6171705;23;20032;-91
2020/12/28 11:12:07;;;;;;;4.97;2.70;;;4.10;99.90;;;;;;6158697;23;20491;-92
2020/12/28 11:14:33;;;;;;;5.10;2.60;;;4.10;99.90;;;;;;6158593;23;20019;-91
2020/12/28 11:17:02;;;;;;;4.77;2.53;;;4.10;99.90;;;;;;6157814;23;20132;-91
2020/12/28 11:19:28;;;;;;;6.33;2.73;;;4.10;99.90;;;;;;6158008;23;20107;-92
2020/12/28 11:21:54;;;;;;;5.00;2.73;;;4.10;99.90;;;;;;6158129;23;20005;-91
2020/12/28 11:24:19;;;;;;;4.13;2.47;;;4.20;99.90;;;;;;6159584;23;20036;-90
2020/12/28 11:26:49;;;;;;;5.87;2.43;;;4.20;99.90;;;;;;6162905;23;20013;-90
2020/12/28 11:29:15;;;;;;;4.33;2.37;;;4.20;99.90;;;;;;6158991;23;20001;-90
2020/12/28 11:31:41;;;;;;;4.53;1.73;;;4.20;99.90;;;;;;6157586;23;20005;-90
2020/12/28 11:34:07;;;;;;;4.37;1.90;;;4.20;99.90;;;;;;6158215;23;20043;-90
2020/12/28 11:36:34;;;;;;;4.80;2.27;;;4.20;99.90;;;;;;6184191;23;20008;-90
2020/12/28 11:39:00;;;;;;;5.70;2.60;;;4.30;99.90;;;;;;6157717;23;20075;-89
2020/12/28 11:41:27;;;;;;;4.17;2.20;;;4.30;99.90;;;;;;6157051;23;20017;-90
2020/12/28 11:43:53;;;;;;;4.63;2.23;;;4.30;99.90;;;;;;6184392;23;20348;-89
2020/12/28 11:46:19;;;;;;;5.47;2.20;;;4.30;99.90;;;;;;6157522;23;20031;-90
2020/12/28 11:48:46;;;;;;;6.27;2.90;;;4.30;99.90;;;;;;6158589;23;20447;-90
2020/12/28 11:51:12;;;;;;;4.40;2.50;;;4.30;99.90;;;;;;6158882;23;20033;-91
2020/12/28 11:53:38;;;;;;;7.83;3.50;;;4.30;99.90;;;;;;6158348;23;20005;-90
2020/12/28 11:56:05;;;;;;;6.40;2.87;;;4.30;99.90;;;;;;6158834;23;20005;-90
2020/12/28 11:58:34;;;;;;;6.87;2.80;;;4.30;99.90;;;;;;6157264;23;20436;-90
2020/12/28 12:01:04;;;;;;;6.70;3.23;;;4.40;99.90;;;;;;6157703;23;20016;-91
2020/12/28 12:03:33;;;;;;;5.83;2.97;;;4.30;99.90;;;;;;6157707;23;20020;-90
2020/12/28 12:06:04;;;;;;;5.70;2.80;;;4.40;99.90;;;;;;6157932;23;20009;-91
2020/12/28 12:08:30;;;;;;;6.22;2.50;;;4.40;99.90;;;;;;6158242;23;20009;-90
2020/12/28 12:10:56;;;;;;;6.57;2.80;;;4.40;99.90;;;;;;6160404;23;20005;-91
2020/12/28 12:13:23;;;;;;;5.50;3.10;;;4.40;99.90;;;;;;6163252;23;20009;-90
2020/12/28 12:15:50;;;;;;;5.97;2.50;;;4.40;99.90;;;;;;6164319;23;20089;-91
2020/12/28 12:18:16;;;;;;;4.77;2.10;;;4.40;99.90;;;;;;6163306;23;20008;-91
2020/12/28 12:20:42;;;;;;;4.63;1.80;;;4.40;99.90;;;;;;6161279;23;20012;-89
2020/12/28 12:23:08;;;;;;;5.30;2.00;;;4.50;99.90;;;;;;6160819;23;20005;-91
2020/12/28 12:25:35;;;;;;;4.57;1.83;;;4.40;99.90;;;;;;6159345;23;20001;-91
2020/12/28 12:28:02;;;;;;;4.53;1.90;;;4.50;99.90;;;;;;6159790;23;20004;-91
2020/12/28 12:30:29;;;;;;;4.93;2.10;;;4.50;99.90;;;;;;6185560;23;20005;-89
2020/12/28 12:32:59;;;;;;;3.97;2.00;;;4.60;99.90;;;;;;6159932;23;20420;-91
2020/12/28 12:35:26;;;;;;;4.53;2.30;;;4.60;99.90;;;;;;6160897;23;20005;-90
2020/12/28 12:37:51;;;;;;;7.93;2.80;;;4.60;99.90;;;;;;6161305;23;20484;-91
2020/12/28 12:40:17;;;;;;;6.53;3.13;;;4.60;99.90;;;;;;6159579;23;20039;-89
2020/12/28 12:42:43;;;;;;;5.87;3.03;;;4.50;99.90;;;;;;6160124;23;20016;-91
2020/12/28 12:45:08;;;;;;;6.10;3.30;;;4.40;99.90;;;;;;6159401;23;20040;-91
2020/12/28 12:47:34;;;;;;;4.53;2.10;;;4.40;99.90;;;;;;6161696;23;20009;-90
2020/12/28 12:50:00;;;;;;;4.47;1.53;;;4.30;99.90;;;;;;6187022;23;20005;-91
2020/12/28 12:52:28;;;;;;;3.70;1.33;;;4.40;99.90;;;;;;6160573;23;20087;-91
2020/12/28 12:54:54;;;;;;;3.23;1.20;;;4.30;99.90;;;;;;6160863;23;20020;-91
2020/12/28 12:57:20;;;;;;;2.20;0.80;;;4.30;99.90;;;;;;6161450;23;20008;-91
2020/12/28 13:00:02;;;;;;;2.20;0.83;;;4.30;99.90;;;;;;6160493;23;20051;-91
2020/12/28 13:02:28;;;;;;;2.10;0.77;;;4.30;99.90;;;;;;6160986;23;20093;-91
2020/12/28 13:04:54;;;;;;;2.60;0.93;;;4.30;99.90;;;;;;6161058;23;20005;-90
2020/12/28 13:07:20;;;;;;;2.83;0.87;;;4.30;99.90;;;;;;6161014;23;20017;-90
2020/12/28 13:09:45;;;;;;;1.97;0.77;;;4.30;99.90;;;;;;6160947;23;20380;-90
2020/12/28 13:12:11;;;;;;;3.23;1.17;;;4.20;99.90;;;;;;6160897;23;20025;-90
2020/12/28 13:14:37;;;;;;;1.93;0.87;;;4.20;99.90;;;;;;6158833;23;20393;-90
2020/12/28 13:17:02;;;;;;;1.60;0.70;;;4.20;99.90;;;;;;6160446;23;20005;-90
2020/12/28 13:19:28;;;;;;;2.13;0.60;;;4.20;99.90;;;;;;6159384;23;20005;-91
2020/12/28 13:21:54;;;;;;;1.53;0.67;;;4.20;99.90;;;;;;6159047;23;20059;-91
2020/12/28 13:24:19;;;;;;;2.57;1.00;;;4.10;99.90;;;;;;6187233;23;20404;-89
2020/12/28 13:26:47;;;;;;;3.93;1.20;;;4.10;99.90;;;;;;6161466;23;20503;-89
2020/12/28 13:29:13;;;;;;;5.10;0.87;;;4.20;99.90;;;;;;6161289;23;20065;-90
2020/12/28 13:31:38;;;;;;;2.37;0.77;;;4.20;99.90;;;;;;6160592;23;20108;-90
2020/12/28 13:34:04;;;;;;;2.03;0.60;;;4.10;99.90;;;;;;6163074;23;20348;-92
2020/12/28 13:36:34;;;;;;;2.23;0.60;;;4.10;99.90;;;;;;6158160;23;20005;-90
2020/12/28 13:39:00;;;;;;;2.63;0.50;;;4.10;99.90;;;;;;6156680;23;20005;-91
2020/12/28 13:41:25;;;;;;;1.17;0.40;;;4.10;99.90;;;;;;6156912;23;20009;-89
2020/12/28 13:43:52;;;;;;;2.83;0.60;;;4.10;99.90;;;;;;6156923;23;20092;-88
2020/12/28 13:46:17;;;;;;;1.13;0.40;;;4.00;99.90;;;;;;6157898;23;20009;-91
2020/12/28 13:48:43;;;;;;;1.47;0.57;;;4.10;99.90;;;;;;6184811;23;20563;-91
2020/12/28 13:51:09;;;;;;;1.47;0.33;;;4.00;99.90;;;;;;6158150;23;20005;-90
2020/12/28 13:53:35;;;;;;;2.67;0.50;;;4.00;99.90;;;;;;6155648;23;20007;-90
2020/12/28 13:56:02;;;;;;;1.90;0.50;;;4.00;99.90;;;;;;6156876;23;20400;-89
2020/12/28 13:58:28;;;;;;;1.07;0.40;;;3.90;99.90;;;;;;6156678;23;20012;-90
2020/12/28 14:00:56;;;;;;;1.50;0.60;;;3.90;99.90;;;;;;6157582;23;20111;-90
2020/12/28 14:03:22;;;;;;;1.00;0.40;;;3.90;99.90;;;;;;6155441;23;20027;-88
2020/12/28 14:05:48;;;;;;;1.60;0.40;;;3.90;99.90;;;;;;6156277;23;20008;-88
2020/12/28 14:08:14;;;;;;;1.33;0.50;;;3.90;99.90;;;;;;6156080;23;20049;-89
2020/12/28 14:10:42;;;;;;;0.77;0.40;;;3.90;99.90;;;;;;6155409;23;20043;-91
2020/12/28 14:13:10;;;;;;;1.80;0.50;;;3.90;99.90;;;;;;6157127;23;20032;-88
2020/12/28 14:15:35;;;;;;;0.93;0.40;;;3.80;99.90;;;;;;6183076;23;20487;-89
2020/12/28 14:18:02;;;;;;;1.17;0.40;;;3.80;99.90;;;;;;6156609;23;20039;-89
2020/12/28 14:20:28;;;;;;;0.90;0.37;;;3.80;99.90;;;;;;6155731;23;20075;-90
2020/12/28 14:22:54;;;;;;;0.97;0.37;;;3.80;99.90;;;;;;6155577;23;20444;-90
2020/12/28 14:25:19;;;;;;;0.90;0.40;;;3.80;99.90;;;;;;6155879;23;20036;-90
2020/12/28 14:27:45;;;;;;;2.23;0.47;;;3.70;99.90;;;;;;6154327;23;20324;-90
2020/12/28 14:30:11;;;;;;;1.40;0.47;;;3.70;99.90;;;;;;6154827;23;20013;-89
2020/12/28 14:32:36;;;;;;;1.83;0.57;;;3.70;99.90;;;;;;6155776;23;20015;-91
2020/12/28 14:35:02;;;;;;;1.20;0.47;;;3.70;99.90;;;;;;6154810;23;20373;-90
2020/12/28 14:37:28;;;;;;;0.83;0.40;;;3.70;99.90;;;;;;6155787;23;20041;-88
2020/12/28 14:39:53;;;;;;;1.03;0.33;;;3.60;99.90;;;;;;6156801;23;20502;-90
2020/12/28 14:42:19;;;;;;;1.63;0.40;;;3.60;99.90;;;;;;6158370;23;20009;-90
2020/12/28 14:44:45;;;;;;;1.23;0.40;;;3.50;99.90;;;;;;6156411;23;20035;-90
2020/12/28 14:47:11;;;;;;;1.53;0.50;;;3.60;99.90;;;;;;6158496;23;20420;-90
2020/12/28 14:49:36;;;;;;;1.00;0.40;;;3.60;99.90;;;;;;6157570;23;20096;-90
2020/12/28 14:52:02;;;;;;;1.27;0.40;;;3.60;99.90;;;;;;6157366;23;20009;-90
2020/12/28 14:54:27;;;;;;;1.77;0.50;;;3.50;99.90;;;;;;6158408;23;20075;-88
2020/12/28 14:56:53;;;;;;;0.90;0.30;;;3.50;99.90;;;;;;6157377;23;20024;-90
2020/12/28 14:59:19;;;;;;;1.80;0.40;;;3.50;99.90;;;;;;6156834;23;20019;-90
2020/12/28 15:01:44;;;;;;;1.63;0.33;;;3.50;99.90;;;;;;6156676;23;20005;-90
2020/12/28 15:04:10;;;;;;;1.97;0.47;;;3.50;99.90;;;;;;6182313;23;20455;-90
2020/12/28 15:06:36;;;;;;;1.40;0.40;;;3.50;99.90;;;;;;6156820;23;20014;-89
2020/12/28 15:09:02;;;;;;;1.23;0.40;;;3.50;99.90;;;;;;6182829;23;20205;-90
2020/12/28 15:11:27;;;;;;;0.57;0.23;;;3.40;99.90;;;;;;6157009;23;20143;-90
2020/12/28 15:13:53;;;;;;;0.63;0.27;;;3.40;99.90;;;;;;6185539;23;20005;-90
2020/12/28 15:16:19;;;;;;;1.43;0.30;;;3.40;99.90;;;;;;6159100;23;20015;-90
2020/12/28 15:18:45;;;;;;;2.57;0.40;;;3.40;99.90;;;;;;6175662;23;19993;-88
2020/12/28 15:21:12;;;;;;;0.90;0.20;;;3.50;99.90;;;;;;6164564;23;20024;-90
2020/12/28 15:23:38;;;;;;;1.33;0.30;;;3.40;99.90;;;;;;6157155;23;20005;-91
2020/12/28 15:26:04;;;;;;;1.20;0.30;;;3.40;99.90;;;;;;6183771;23;20008;-92
2020/12/28 15:28:29;;;;;;;0.70;0.30;;;3.40;99.90;;;;;;6158119;23;20440;-92
2020/12/28 15:30:55;;;;;;;1.00;0.40;;;3.40;99.90;;;;;;6158546;23;20001;-91
2020/12/28 15:33:20;;;;;;;1.00;0.33;;;3.40;99.90;;;;;;6157406;23;20492;-89
2020/12/28 15:35:47;;;;;;;2.03;0.30;;;3.40;99.90;;;;;;6184872;23;20008;-90
2020/12/28 15:38:13;;;;;;;1.27;0.37;;;3.40;99.90;;;;;;6157960;23;20009;-90
2020/12/28 15:40:39;;;;;;;0.97;0.30;;;3.40;99.90;;;;;;6158462;23;20007;-89
2020/12/28 15:43:05;;;;;;;0.90;0.37;;;3.40;99.90;;;;;;6158729;23;20047;-90
2020/12/28 15:45:31;;;;;;;1.17;0.40;;;3.40;99.90;;;;;;6185916;23;19998;-91
2020/12/28 15:47:57;;;;;;;1.47;0.40;;;3.40;99.90;;;;;;6160245;23;20377;-91
2020/12/28 15:50:22;;;;;;;3.27;0.33;;;3.40;99.90;;;;;;6156595;23;20059;-91
2020/12/28 15:52:48;;;;;;;1.67;0.40;;;3.40;99.90;;;;;;6158007;23;20065;-91
2020/12/28 15:55:14;;;;;;;0.87;0.30;;;3.40;99.90;;;;;;6157954;23;20001;-91
2020/12/28 15:57:41;;;;;;;2.63;0.30;;;3.40;99.90;;;;;;6157148;23;20083;-90
2020/12/28 20:24:22;;;;;;;6.87;2.97;;;1.30;99.90;;;;;;6186190;23;20108;-87
2020/12/28 20:26:47;;;;;;;7.57;3.50;;;1.30;99.90;;;;;;6159653;23;20105;-87
2020/12/28 20:29:13;;;;;;;8.13;3.23;;;1.40;99.90;;;;;;6159104;23;20059;-87
2020/12/28 20:31:38;;;;;;;7.70;3.53;;;1.40;99.90;;;;;;6184899;23;20088;-86
2020/12/28 20:34:04;;;;;;;7.30;3.23;;;1.40;99.90;;;;;;6185305;23;20005;-86
2020/12/28 20:36:36;;;;;;;7.47;3.00;;;1.40;99.90;;;;;;6184407;23;20433;-87
2020/12/28 20:39:08;;;;;;;3.80;1.98;;;1.30;99.90;;;;;;6183870;23;20088;-86
2020/12/28 20:41:34;;;;;;;;;;;1.40;99.90;;;;;;6184560;23;20005;-87
2020/12/28 20:43:59;;;;;;;6.40;2.93;;;1.40;99.90;;;;;;6184523;23;19982;-88
2020/12/28 20:46:25;;;;;;;7.30;3.00;;;1.40;99.90;;;;;;6183974;23;20007;-87
2020/12/28 20:48:54;;;;;;;5.63;2.70;;;1.40;99.90;;;;;;6183773;23;20064;-87
2020/12/28 20:51:20;;;;;;;6.73;2.80;;;1.40;99.90;;;;;;6184754;23;20196;-87
2020/12/28 20:53:48;;;;;;;8.53;3.27;;;1.40;99.90;;;;;;6184850;23;20527;-87
2020/12/28 20:56:14;;;;;;;7.77;3.33;;;1.50;99.90;;;;;;6183687;23;20369;-86
2020/12/28 20:58:40;;;;;;;7.97;3.70;;;1.50;99.90;;;;;;6186126;23;20337;-87
2020/12/28 21:01:06;;;;;;;8.90;3.77;;;1.50;99.90;;;;;;6184038;23;20012;-86
2020/12/28 21:03:32;;;;;;;10.07;4.30;;;1.50;99.90;;;;;;6184137;23;20108;-86
2020/12/28 21:05:57;;;;;;;7.60;3.60;;;1.50;99.90;;;;;;6185172;23;20106;-86
2020/12/28 21:08:23;;;;;;;6.63;3.27;;;1.50;99.90;;;;;;6185608;23;20033;-87
2020/12/28 21:10:50;;;;;;;6.87;3.07;;;1.50;99.90;;;;;;6191568;23;20020;-88
2020/12/28 21:13:17;;;;;;;6.90;2.77;;;1.50;99.90;;;;;;6188042;23;20091;-87
2020/12/28 21:15:50;;;;;;;7.23;2.80;;;1.50;99.90;;;;;;6185434;23;20001;-87
2020/12/28 21:18:15;;;;;;;6.77;3.13;;;1.60;99.90;;;;;;6184034;23;20001;-87
2020/12/28 21:20:41;;;;;;;5.30;2.70;;;1.60;99.90;;;;;;6183957;23;20028;-87
2020/12/28 21:23:06;;;;;;;8.83;3.43;;;1.50;99.90;;;;;;6183771;23;20013;-88
2020/12/28 21:25:32;;;;;;;8.07;3.10;;;1.60;99.90;;;;;;6184318;23;20809;-86
2020/12/28 21:27:58;;;;;;;7.93;3.37;;;1.60;99.90;;;;;;6184538;23;20036;-86
2020/12/28 21:30:25;;;;;;;9.63;4.10;;;1.60;99.90;;;;;;6184846;23;20329;-86
2020/12/28 21:32:51;;;;;;;6.27;2.70;;;1.60;99.90;;;;;;6184398;23;20020;-87
2020/12/28 21:35:16;;;;;;;4.60;2.27;;;1.60;99.90;;;;;;6184573;23;20000;-86
2020/12/28 21:37:42;;;;;;;4.77;2.23;;;1.70;99.90;;;;;;6183858;23;20015;-87
2020/12/28 21:40:08;;;;;;;4.87;2.17;;;1.70;99.90;;;;;;6183565;23;20005;-87
2020/12/28 21:42:35;;;;;;;5.73;2.37;;;1.80;99.90;;;;;;6185134;23;20005;-87
2020/12/28 21:45:08;;;;;;;4.17;1.80;;;1.80;99.90;;;;;;6184114;23;20376;-86
2020/12/28 21:47:34;;;;;;;6.10;2.50;;;1.80;99.90;;;;;;6183816;23;20037;-86
2020/12/28 21:50:01;;;;;;;4.13;2.20;;;1.70;99.90;;;;;;6183799;23;20525;-88
2020/12/28 21:52:26;;;;;;;4.37;1.70;;;1.80;99.90;;;;;;6183322;23;20008;-87
2020/12/28 21:54:52;;;;;;;4.77;2.00;;;1.80;99.90;;;;;;6186659;23;20005;-86
2020/12/28 21:57:18;;;;;;;5.87;2.10;;;1.80;99.90;;;;;;6185997;23;20765;-87
2020/12/28 21:59:44;;;;;;;4.90;2.33;;;1.80;99.90;;;;;;6187553;23;20087;-88
2020/12/28 22:02:37;;;;;;;5.27;2.40;;;1.80;99.90;;;;;;6185802;23;20009;-87
2020/12/28 22:05:09;;;;;;;5.90;2.65;;;1.80;99.90;;;;;;6186029;23;20151;-87
2020/12/28 22:07:36;;;;;;;5.83;2.50;;;1.80;99.90;;;;;;6186638;23;20020;-86
2020/12/28 22:10:04;;;;;;;4.40;2.80;;;1.70;99.90;;;;;;6185534;23;20063;-86
2020/12/28 22:12:32;;;;;;;5.67;2.47;;;1.80;99.90;;;;;;6186960;23;20001;-87
2020/12/28 22:14:58;;;;;;;6.13;2.73;;;1.70;99.90;;;;;;6187737;23;20005;-87
2020/12/28 22:17:23;;;;;;;5.07;2.60;;;1.80;99.90;;;;;;6186586;23;20626;-86
2020/12/28 22:19:49;;;;;;;5.17;2.90;;;1.80;99.90;;;;;;6186742;23;20013;-86
2020/12/28 22:22:14;;;;;;;6.17;3.10;;;1.80;99.90;;;;;;6186733;23;20401;-86
2020/12/28 22:24:40;;;;;;;4.33;2.37;;;1.80;99.90;;;;;;6186498;23;20339;-87
2020/12/28 22:27:06;;;;;;;7.80;3.10;;;1.80;99.90;;;;;;6186748;23;20085;-86
2020/12/28 22:29:31;;;;;;;7.03;3.17;;;1.80;99.90;;;;;;6186131;23;20005;-86
2020/12/28 22:31:58;;;;;;;5.00;2.87;;;1.80;99.90;;;;;;6185759;23;20040;-87
2020/12/28 22:34:24;;;;;;;7.10;3.00;;;1.80;99.90;;;;;;6185216;23;19997;-86
2020/12/28 22:36:51;;;;;;;4.90;2.83;;;1.80;99.90;;;;;;6185230;23;20088;-87
2020/12/28 22:39:17;;;;;;;7.03;3.10;;;1.80;99.90;;;;;;6184958;23;20063;-87
2020/12/28 22:41:42;;;;;;;6.33;3.30;;;1.70;99.90;;;;;;6185165;23;20008;-86
2020/12/28 22:44:08;;;;;;;7.67;3.17;;;1.70;99.90;;;;;;6185335;23;20012;-86
2020/12/28 22:46:34;;;;;;;7.33;2.90;;;1.70;99.90;;;;;;6185193;23;20005;-86
2020/12/28 22:48:59;;;;;;;6.00;2.80;;;1.70;99.90;;;;;;6184958;23;20348;-86
2020/12/28 22:51:25;;;;;;;7.07;3.17;;;1.80;99.90;;;;;;6185511;23;20008;-86
2020/12/28 22:53:50;;;;;;;6.50;3.00;;;1.70;99.90;;;;;;6187490;23;20016;-86
2020/12/28 22:56:16;;;;;;;4.97;3.00;;;1.70;99.90;;;;;;6186154;23;20063;-86
2020/12/28 22:58:41;;;;;;;7.13;3.03;;;1.70;99.90;;;;;;6185847;23;20008;-87
2020/12/28 23:01:07;;;;;;;6.87;2.90;;;1.70;99.90;;;;;;6185791;23;20084;-86
2020/12/28 23:03:33;;;;;;;5.93;2.70;;;1.70;99.90;;;;;;6185710;23;20012;-87
2020/12/28 23:05:59;;;;;;;6.10;3.03;;;1.80;99.90;;;;;;6186316;23;20020;-86
2020/12/28 23:08:25;;;;;;;5.97;3.20;;;1.70;99.90;;;;;;6186809;23;20009;-86
2020/12/28 23:10:51;;;;;;;5.80;2.90;;;1.80;99.90;;;;;;6186656;23;20009;-86
2020/12/28 23:13:16;;;;;;;5.47;2.73;;;1.70;99.90;;;;;;6186642;23;20692;-86
2020/12/28 23:23:28;;;;;;;5.87;2.63;;;1.70;99.90;;;;;;6211726;23;20040;-94
2020/12/28 23:25:54;;;;;;;5.13;2.53;;;1.70;99.90;;;;;;6185731;23;20014;-93
2020/12/28 23:28:19;;;;;;;4.40;2.20;;;1.70;99.90;;;;;;6180733;23;20052;-95
2020/12/28 23:30:45;;;;;;;6.90;2.37;;;1.80;99.90;;;;;;6186005;23;20032;-93
2020/12/28 23:33:11;;;;;;;5.03;2.10;;;1.90;99.90;;;;;;6209000;23;20049;-94
2020/12/28 23:35:37;;;;;;;5.50;2.53;;;1.90;99.90;;;;;;6210747;23;20033;-94
2020/12/28 23:38:03;;;;;;;4.17;2.03;;;1.90;99.90;;;;;;6209987;23;19993;-94
2020/12/28 23:40:29;;;;;;;4.10;2.10;;;2.00;99.90;;;;;;6210134;23;19997;-93
2020/12/28 23:42:55;;;;;;;4.10;1.77;;;2.00;99.90;;;;;;6210036;23;20016;-93
2020/12/28 23:45:21;;;;;;;6.30;1.70;;;2.10;99.90;;;;;;6210637;23;20005;-95
2020/12/28 23:47:47;;;;;;;3.77;1.50;;;2.10;99.90;;;;;;6209978;23;19993;-93
2020/12/28 23:50:13;;;;;;;3.10;1.63;;;2.10;99.90;;;;;;6209285;23;20017;-94
2020/12/28 23:52:41;;;;;;;3.53;1.60;;;2.10;99.90;;;;;;6209726;23;20016;-93
2020/12/28 23:55:07;;;;;;;2.40;1.20;;;2.10;99.90;;;;;;6210767;23;20021;-93
2020/12/28 23:57:33;;;;;;;3.47;1.40;;;2.10;99.90;;;;;;6210312;23;20028;-93
2020/12/28 23:59:59;;;;;;;2.67;1.03;;;2.20;99.90;;;;;;6210031;23;20045;-94
